createdAt,value
2018-07-30T00:00:13.755Z,80.50
2018-07-30T00:02:48.838Z,80.70
2018-07-30T00:05:23.006Z,81.50
2018-07-30T00:07:59.009Z,80.80
2018-07-30T00:10:33.283Z,81.20
2018-07-30T00:13:07.880Z,81.20
2018-07-30T00:15:42.129Z,81.20
2018-07-30T00:18:16.403Z,81.20
2018-07-30T00:20:50.477Z,81.10
2018-07-30T00:23:25.121Z,81.10
2018-07-30T00:25:59.786Z,81.10
2018-07-30T00:28:34.378Z,81.00
2018-07-30T00:31:09.357Z,81.00
2018-07-30T00:33:43.925Z,81.00
2018-07-30T00:36:18.945Z,81.00
2018-07-30T00:38:53.261Z,81.00
2018-07-30T00:41:28.024Z,81.10
2018-07-30T00:44:03.023Z,81.30
2018-07-30T00:46:37.810Z,81.20
2018-07-30T00:49:12.430Z,81.20
2018-07-30T00:51:47.035Z,81.30
2018-07-30T00:54:21.784Z,81.40
2018-07-30T00:56:56.480Z,81.50
2018-07-30T00:59:31.188Z,81.50
2018-07-30T01:02:06.020Z,81.80
2018-07-30T01:04:40.697Z,81.70
2018-07-30T01:07:15.599Z,81.80
2018-07-30T01:09:50.468Z,81.90
2018-07-30T01:12:25.363Z,81.70
2018-07-30T01:15:00.190Z,81.90
2018-07-30T01:17:35.024Z,81.90
2018-07-30T01:20:10.024Z,82.10
2018-07-30T01:22:44.773Z,82.00
2018-07-30T01:25:19.682Z,82.00
2018-07-30T01:27:53.903Z,82.10
2018-07-30T01:33:03.204Z,82.20
2018-07-30T01:35:37.794Z,82.20
2018-07-30T01:38:13.440Z,82.30
2018-07-30T01:40:48.101Z,82.40
2018-07-30T01:43:22.833Z,82.70
2018-07-30T01:45:57.787Z,82.80
2018-07-30T01:48:32.373Z,82.90
2018-07-30T01:51:07.376Z,83.00
2018-07-30T01:53:41.861Z,83.10
2018-07-30T01:56:16.594Z,83.10
2018-07-30T01:58:51.449Z,83.20
2018-07-30T02:01:26.036Z,83.20
2018-07-30T02:04:00.990Z,83.30
2018-07-30T02:06:35.984Z,83.20
2018-07-30T02:09:10.677Z,83.20
2018-07-30T02:11:44.914Z,82.90
2018-07-30T02:14:19.584Z,82.80
2018-07-30T02:16:54.240Z,82.70
2018-07-30T02:19:28.990Z,82.70
2018-07-30T02:22:03.836Z,82.60
2018-07-30T02:24:38.515Z,82.60
2018-07-30T02:27:13.579Z,82.70
2018-07-30T02:29:48.170Z,82.80
2018-07-30T02:32:22.381Z,82.80
2018-07-30T02:34:56.942Z,82.80
2018-07-30T02:37:32.139Z,82.80
2018-07-30T02:40:07.261Z,83.20
2018-07-30T02:42:41.797Z,83.50
2018-07-30T02:45:15.972Z,83.70
2018-07-30T02:47:50.536Z,83.70
2018-07-30T02:50:25.303Z,83.90
2018-07-30T02:52:59.896Z,83.90
2018-07-30T02:55:34.522Z,83.90
2018-07-30T02:58:16.494Z,83.80
2018-07-30T03:00:51.546Z,83.80
2018-07-30T03:03:26.298Z,83.80
2018-07-30T03:06:01.021Z,83.80
2018-07-30T03:08:35.765Z,83.70
2018-07-30T03:11:10.480Z,84.00
2018-07-30T03:13:45.546Z,84.00
2018-07-30T03:16:19.701Z,84.20
2018-07-30T03:18:54.309Z,84.30
2018-07-30T03:21:29.925Z,84.00
2018-07-30T03:24:04.984Z,84.00
2018-07-30T03:26:39.456Z,84.00
2018-07-30T03:29:14.064Z,84.00
2018-07-30T03:31:48.993Z,84.00
2018-07-30T03:34:23.703Z,84.00
2018-07-30T03:36:58.945Z,83.80
2018-07-30T03:39:33.288Z,83.80
2018-07-30T03:42:07.605Z,84.10
2018-07-30T03:44:42.355Z,84.00
2018-07-30T03:47:17.252Z,83.90
2018-07-30T03:49:52.276Z,84.00
2018-07-30T03:52:27.111Z,83.90
2018-07-30T03:55:01.482Z,84.00
2018-07-30T03:57:36.417Z,84.00
2018-07-30T04:00:12.619Z,83.90
2018-07-30T04:02:46.941Z,83.80
2018-07-30T04:05:21.513Z,83.80
2018-07-30T04:07:56.425Z,84.60
2018-07-30T04:10:31.077Z,83.90
2018-07-30T04:13:06.016Z,84.00
2018-07-30T04:15:40.691Z,84.10
2018-07-30T04:18:15.478Z,84.20
2018-07-30T04:20:50.153Z,84.30
2018-07-30T04:23:25.287Z,84.10
2018-07-30T04:25:59.593Z,84.50
2018-07-30T04:28:34.422Z,84.40
2018-07-30T04:31:09.057Z,84.10
2018-07-30T04:33:44.063Z,84.70
2018-07-30T04:36:18.921Z,84.00
2018-07-30T04:38:53.456Z,83.40
2018-07-30T04:41:28.569Z,83.00
2018-07-30T04:44:03.211Z,82.70
2018-07-30T04:46:37.936Z,82.30
2018-07-30T04:49:12.219Z,82.00
2018-07-30T04:51:46.280Z,81.50
2018-07-30T04:54:20.712Z,81.20
2018-07-30T04:56:54.911Z,81.40
2018-07-30T04:59:29.750Z,81.60
2018-07-30T05:02:03.907Z,81.30
2018-07-30T05:04:39.096Z,82.60
2018-07-30T05:07:14.364Z,81.60
2018-07-30T05:09:48.612Z,81.20
2018-07-30T05:12:23.646Z,80.80
2018-07-30T05:14:58.164Z,81.10
2018-07-30T05:17:32.825Z,80.20
2018-07-30T05:20:07.841Z,79.60
2018-07-30T05:22:42.214Z,80.10
2018-07-30T05:25:16.947Z,79.50
2018-07-30T05:27:51.655Z,79.30
2018-07-30T05:30:26.506Z,78.30
2018-07-30T05:33:00.945Z,78.00
2018-07-30T05:35:35.773Z,77.40
2018-07-30T05:38:10.393Z,75.50
2018-07-30T05:40:45.147Z,75.00
2018-07-30T05:43:19.880Z,74.10
2018-07-30T05:45:54.754Z,72.50
2018-07-30T05:48:29.607Z,71.70
2018-07-30T05:51:04.274Z,68.10
2018-07-30T05:53:39.030Z,67.10
2018-07-30T05:56:13.625Z,64.10
2018-07-30T05:58:48.576Z,61.10
2018-07-30T06:01:23.650Z,59.40
2018-07-30T06:03:58.394Z,58.10
2018-07-30T06:06:32.729Z,55.90
2018-07-30T06:09:09.130Z,53.80
2018-07-30T06:11:43.513Z,53.50
2018-07-30T06:14:17.904Z,51.90
2018-07-30T06:16:53.180Z,50.90
2018-07-30T06:19:28.034Z,50.60
2018-07-30T06:22:02.812Z,49.50
2018-07-30T06:24:37.794Z,49.40
2018-07-30T06:27:12.161Z,48.40
2018-07-30T06:29:47.037Z,48.40
2018-07-30T06:32:21.737Z,47.40
2018-07-30T06:34:56.452Z,46.20
2018-07-30T06:37:31.248Z,46.00
2018-07-30T06:40:06.053Z,46.40
2018-07-30T06:42:47.225Z,45.50
2018-07-30T06:45:21.349Z,45.60
2018-07-30T06:47:56.258Z,45.50
2018-07-30T06:50:31.148Z,44.60
2018-07-30T06:53:05.788Z,44.00
2018-07-30T06:55:40.377Z,44.70
2018-07-30T06:58:15.027Z,44.80
2018-07-30T07:00:49.911Z,44.20
2018-07-30T07:03:24.438Z,45.00
2018-07-30T07:05:59.209Z,44.10
2018-07-30T07:08:33.874Z,44.70
2018-07-30T07:11:08.306Z,44.40
2018-07-30T07:13:43.175Z,43.30
2018-07-30T07:16:17.603Z,44.10
2018-07-30T07:18:52.775Z,44.10
2018-07-30T07:21:28.067Z,44.10
2018-07-30T07:24:02.981Z,44.00
2018-07-30T07:26:37.453Z,42.40
2018-07-30T07:29:12.549Z,43.20
2018-07-30T07:31:47.513Z,42.40
2018-07-30T07:34:21.686Z,43.10
2018-07-30T07:36:56.212Z,40.70
2018-07-30T07:39:30.832Z,41.70
2018-07-30T07:42:05.647Z,42.90
2018-07-30T07:44:40.577Z,41.60
2018-07-30T07:47:15.184Z,42.70
2018-07-30T07:49:49.974Z,43.20
2018-07-30T07:52:24.653Z,43.20
2018-07-30T07:54:59.310Z,42.70
2018-07-30T07:57:33.608Z,42.50
2018-07-30T08:00:09.968Z,42.00
2018-07-30T08:02:44.104Z,42.30
2018-07-30T08:05:18.812Z,41.50
2018-07-30T08:07:53.737Z,40.80
2018-07-30T08:10:28.414Z,41.70
2018-07-30T08:13:03.226Z,41.50
2018-07-30T08:15:38.084Z,42.60
2018-07-30T08:18:12.888Z,41.90
2018-07-30T08:20:47.584Z,41.80
2018-07-30T08:23:22.293Z,40.70
2018-07-30T08:25:57.642Z,41.70
2018-07-30T08:28:32.819Z,41.60
2018-07-30T08:31:07.813Z,40.20
2018-07-30T08:33:42.037Z,41.90
2018-07-30T08:36:16.300Z,39.80
2018-07-30T08:38:50.782Z,41.60
2018-07-30T08:41:24.960Z,38.60
2018-07-30T08:43:59.746Z,39.50
2018-07-30T08:46:34.434Z,39.70
2018-07-30T08:49:09.343Z,40.70
2018-07-30T08:51:43.955Z,40.20
2018-07-30T08:54:18.818Z,41.40
2018-07-30T08:56:53.481Z,40.70
2018-07-30T08:59:28.157Z,39.90
2018-07-30T09:02:03.476Z,39.50
2018-07-30T09:04:38.416Z,37.40
2018-07-30T09:07:13.174Z,37.10
2018-07-30T09:09:47.848Z,37.20
2018-07-30T09:12:22.922Z,34.30
2018-07-30T09:14:57.255Z,35.50
2018-07-30T09:17:31.817Z,34.40
2018-07-30T09:20:06.641Z,36.30
2018-07-30T09:22:41.194Z,36.00
2018-07-30T09:25:16.071Z,36.50
2018-07-30T09:27:50.868Z,36.10
2018-07-30T09:30:25.697Z,36.30
2018-07-30T09:33:00.734Z,36.70
2018-07-30T09:35:35.118Z,34.00
2018-07-30T09:38:10.206Z,32.70
2018-07-30T09:40:44.467Z,35.50
2018-07-30T09:43:18.801Z,34.80
2018-07-30T09:45:53.308Z,35.40
2018-07-30T09:48:27.517Z,34.10
2018-07-30T09:51:02.262Z,35.30
2018-07-30T09:53:36.433Z,36.40
2018-07-30T09:58:45.435Z,37.80
2018-07-30T10:01:25.741Z,38.20
2018-07-30T10:04:00.914Z,34.80
2018-07-30T10:06:35.106Z,36.00
2018-07-30T10:09:11.292Z,35.00
2018-07-30T10:11:45.426Z,36.00
2018-07-30T10:14:20.349Z,39.50
2018-07-30T10:16:55.534Z,40.20
2018-07-30T10:19:30.458Z,41.20
2018-07-30T10:22:05.496Z,41.20
2018-07-30T10:24:39.956Z,39.90
2018-07-30T10:27:14.721Z,39.60
2018-07-30T10:29:49.489Z,42.30
2018-07-30T10:32:24.120Z,43.10
2018-07-30T10:34:58.811Z,46.20
2018-07-30T10:37:33.454Z,44.10
2018-07-30T10:40:08.197Z,45.50
2018-07-30T10:42:43.241Z,45.10
2018-07-30T10:45:17.757Z,44.50
2018-07-30T10:47:52.651Z,39.90
2018-07-30T10:50:26.816Z,40.30
2018-07-30T10:53:01.994Z,42.00
2018-07-30T10:55:36.474Z,44.20
2018-07-30T10:58:11.904Z,41.30
2018-07-30T11:00:46.773Z,42.20
2018-07-30T11:03:22.173Z,40.90
2018-07-30T11:05:57.165Z,39.40
2018-07-30T11:11:06.933Z,41.40
2018-07-30T11:13:41.367Z,41.30
2018-07-30T11:16:16.200Z,38.90
2018-07-30T11:18:50.911Z,39.50
2018-07-30T11:21:25.678Z,38.60
2018-07-30T11:24:01.094Z,38.10
2018-07-30T11:26:35.995Z,36.50
2018-07-30T11:29:10.771Z,38.80
2018-07-30T11:31:45.600Z,40.20
2018-07-30T11:34:19.942Z,39.60
2018-07-30T11:36:54.653Z,38.20
2018-07-30T11:39:29.500Z,39.00
2018-07-30T11:42:03.987Z,39.10
2018-07-30T11:44:38.661Z,40.10
2018-07-30T11:47:13.318Z,39.60
2018-07-30T11:49:48.185Z,38.80
2018-07-30T11:52:22.805Z,39.60
2018-07-30T11:54:57.546Z,40.50
2018-07-30T12:00:07.325Z,39.70
2018-07-30T12:02:42.426Z,39.00
2018-07-30T12:05:16.528Z,38.90
2018-07-30T12:07:51.481Z,39.40
2018-07-30T12:10:25.618Z,40.50
2018-07-30T12:13:00.372Z,39.60
2018-07-30T12:15:34.948Z,41.60
2018-07-30T12:18:09.141Z,42.20
2018-07-30T12:20:43.810Z,41.60
2018-07-30T12:23:18.467Z,41.50
2018-07-30T12:25:53.034Z,41.80
2018-07-30T12:28:27.515Z,41.90
2018-07-30T12:31:02.176Z,42.60
2018-07-30T12:33:36.942Z,44.60
2018-07-30T12:38:46.227Z,43.90
2018-07-30T12:41:20.884Z,42.70
2018-07-30T12:43:55.497Z,42.90
2018-07-30T12:46:30.100Z,45.30
2018-07-30T12:49:05.286Z,43.50
2018-07-30T12:51:39.905Z,41.60
2018-07-30T12:54:14.208Z,43.30
2018-07-30T12:56:50.018Z,45.60
2018-07-30T12:59:24.516Z,46.30
2018-07-30T13:01:59.317Z,47.30
2018-07-30T13:07:09.233Z,43.70
2018-07-30T13:09:44.029Z,46.00
2018-07-30T13:12:18.112Z,42.80
2018-07-30T13:14:52.295Z,42.50
2018-07-30T13:17:26.961Z,42.30
2018-07-30T13:20:01.037Z,42.10
2018-07-30T13:22:35.677Z,41.80
2018-07-30T13:25:09.832Z,41.80
2018-07-30T13:27:44.892Z,42.70
2018-07-30T13:30:19.784Z,42.20
2018-07-30T13:32:54.699Z,41.80
2018-07-30T13:35:28.988Z,43.20
2018-07-30T13:38:04.178Z,41.70
2018-07-30T13:40:38.750Z,41.80
2018-07-30T13:43:13.159Z,41.90
2018-07-30T13:45:47.981Z,42.00
2018-07-30T13:48:22.637Z,41.20
2018-07-30T13:50:57.345Z,40.90
2018-07-30T13:53:32.036Z,42.20
2018-07-30T13:56:06.993Z,41.80
2018-07-30T13:58:41.548Z,41.60
2018-07-30T14:01:16.571Z,42.70
2018-07-30T14:03:51.655Z,41.20
2018-07-30T14:06:25.998Z,42.00
2018-07-30T14:09:00.788Z,42.40
2018-07-30T14:11:35.201Z,42.00
2018-07-30T14:14:10.354Z,43.30
2018-07-30T14:16:44.659Z,44.40
2018-07-30T14:19:19.585Z,45.10
2018-07-30T14:21:54.504Z,43.20
2018-07-30T14:24:29.213Z,43.20
2018-07-30T14:27:03.572Z,43.20
2018-07-30T14:29:38.028Z,43.20
2018-07-30T14:32:13.398Z,43.20
2018-07-30T14:34:48.433Z,43.20
2018-07-30T14:37:22.682Z,42.50
2018-07-30T14:39:57.852Z,43.00
2018-07-30T14:42:32.629Z,42.50
2018-07-30T14:45:07.408Z,42.10
2018-07-30T14:47:42.157Z,41.60
2018-07-30T14:50:17.182Z,42.40
2018-07-30T14:52:51.412Z,42.20
2018-07-30T14:55:26.029Z,42.00
2018-07-30T14:58:00.672Z,42.10
2018-07-30T15:00:35.588Z,42.20
2018-07-30T15:03:09.846Z,42.30
2018-07-30T15:05:44.531Z,41.60
2018-07-30T15:08:19.194Z,41.00
2018-07-30T15:10:53.948Z,41.30
2018-07-30T15:13:28.796Z,41.40
2018-07-30T15:16:03.373Z,41.20
2018-07-30T15:18:38.128Z,41.80
2018-07-30T15:21:13.128Z,41.10
2018-07-30T15:23:47.483Z,41.90
2018-07-30T15:26:22.311Z,41.90
2018-07-30T15:28:56.924Z,41.60
2018-07-30T15:31:31.879Z,42.10
2018-07-30T15:34:06.582Z,42.40
2018-07-30T15:36:40.861Z,41.80
2018-07-30T15:39:15.158Z,42.00
2018-07-30T15:41:50.060Z,43.50
2018-07-30T15:44:24.851Z,42.80
2018-07-30T15:46:59.900Z,41.60
2018-07-30T15:49:34.108Z,41.90
2018-07-30T15:52:08.218Z,42.10
2018-07-30T15:57:17.420Z,43.10
2018-07-30T15:59:52.256Z,43.30
2018-07-30T16:02:27.009Z,42.30
2018-07-30T16:07:36.496Z,43.00
2018-07-30T16:10:11.310Z,44.30
2018-07-30T16:12:45.798Z,46.20
2018-07-30T16:15:20.786Z,44.90
2018-07-30T16:17:55.246Z,45.90
2018-07-30T16:20:29.805Z,46.30
2018-07-30T16:23:04.815Z,43.40
2018-07-30T16:25:39.432Z,43.10
2018-07-30T16:28:13.760Z,42.90
2018-07-30T16:30:48.498Z,42.90
2018-07-30T16:33:23.566Z,42.80
2018-07-30T16:35:57.957Z,42.70
2018-07-30T16:38:32.634Z,43.30
2018-07-30T16:41:07.259Z,43.50
2018-07-30T16:43:42.146Z,42.70
2018-07-30T16:46:17.237Z,43.00
2018-07-30T16:48:51.576Z,44.10
2018-07-30T16:51:26.284Z,42.70
2018-07-30T16:54:00.988Z,43.10
2018-07-30T16:56:35.638Z,43.10
2018-07-30T16:59:10.327Z,41.50
2018-07-30T17:01:44.717Z,40.60
2018-07-30T17:04:20.008Z,40.90
2018-07-30T17:06:54.174Z,40.80
2018-07-30T17:09:28.798Z,40.70
2018-07-30T17:12:03.734Z,40.80
2018-07-30T17:14:38.312Z,40.10
2018-07-30T17:17:12.889Z,40.10
2018-07-30T17:19:47.605Z,39.60
2018-07-30T17:22:22.263Z,41.30
2018-07-30T17:24:56.913Z,40.50
2018-07-30T17:27:31.501Z,39.30
2018-07-30T17:30:06.976Z,39.20
2018-07-30T17:32:42.139Z,40.50
2018-07-30T17:35:17.134Z,40.40
2018-07-30T17:37:51.943Z,40.70
2018-07-30T17:40:26.724Z,41.60
2018-07-30T17:43:01.601Z,41.00
2018-07-30T17:45:36.395Z,40.20
2018-07-30T17:48:10.948Z,40.90
2018-07-30T17:50:45.669Z,42.00
2018-07-30T17:53:20.521Z,40.80
2018-07-30T17:55:55.296Z,39.70
2018-07-30T17:58:30.128Z,40.00
2018-07-30T18:01:04.335Z,40.40
2018-07-30T18:03:38.713Z,41.10
2018-07-30T18:06:13.792Z,41.20
2018-07-30T18:11:22.697Z,42.50
2018-07-30T18:13:56.920Z,43.90
2018-07-30T18:16:31.799Z,44.60
2018-07-30T18:19:06.680Z,47.40
2018-07-30T18:21:41.090Z,46.20
2018-07-30T18:24:15.733Z,47.50
2018-07-30T18:26:50.604Z,48.50
2018-07-30T18:29:25.436Z,49.00
2018-07-30T18:32:00.232Z,50.10
2018-07-30T18:34:34.773Z,50.20
2018-07-30T18:37:09.625Z,51.00
2018-07-30T18:39:44.119Z,51.40
2018-07-30T18:42:18.825Z,52.30
2018-07-30T18:44:53.783Z,53.80
2018-07-30T18:47:28.400Z,53.90
2018-07-30T18:50:03.189Z,54.00
2018-07-30T18:52:37.728Z,54.70
2018-07-30T18:55:12.466Z,54.80
2018-07-30T18:57:47.353Z,55.10
2018-07-30T19:00:21.827Z,55.30
2018-07-30T19:02:56.656Z,55.70
2018-07-30T19:05:31.265Z,56.00
2018-07-30T19:08:06.645Z,56.60
2018-07-30T19:10:41.292Z,57.20
2018-07-30T19:13:15.392Z,57.30
2018-07-30T19:15:49.736Z,57.70
2018-07-30T19:18:24.768Z,58.10
2018-07-30T19:20:59.066Z,58.50
2018-07-30T19:23:33.170Z,59.10
2018-07-30T19:26:07.354Z,59.50
2018-07-30T19:28:42.084Z,59.90
2018-07-30T19:31:17.458Z,60.20
2018-07-30T19:33:52.663Z,60.40
2018-07-30T19:36:27.563Z,60.80
2018-07-30T19:39:02.221Z,60.80
2018-07-30T19:41:37.443Z,61.00
2018-07-30T19:44:11.745Z,61.20
2018-07-30T19:46:46.228Z,61.50
2018-07-30T19:49:21.075Z,61.30
2018-07-30T19:51:55.590Z,61.60
2018-07-30T19:54:30.030Z,61.90
2018-07-30T19:57:05.398Z,62.30
2018-07-30T19:59:39.581Z,62.70
2018-07-30T20:02:14.137Z,62.80
2018-07-30T20:04:48.911Z,63.70
2018-07-30T20:07:23.501Z,64.30
2018-07-30T20:09:58.355Z,64.30
2018-07-30T20:12:33.032Z,64.40
2018-07-30T20:15:07.929Z,64.70
2018-07-30T20:17:42.594Z,64.80
2018-07-30T20:20:17.324Z,64.80
2018-07-30T20:22:51.912Z,65.00
2018-07-30T20:25:26.136Z,65.20
2018-07-30T20:28:00.828Z,65.40
2018-07-30T20:30:35.894Z,65.60
2018-07-30T20:33:10.593Z,65.80
2018-07-30T20:35:45.734Z,65.80
2018-07-30T20:38:20.460Z,65.90
2018-07-30T20:40:55.145Z,65.80
2018-07-30T20:43:29.904Z,65.90
2018-07-30T20:48:39.138Z,66.20
2018-07-30T20:51:13.815Z,66.40
2018-07-30T20:53:48.523Z,66.70
2018-07-30T20:56:23.166Z,67.20
2018-07-30T20:58:58.007Z,67.30
2018-07-30T21:01:32.564Z,67.50
2018-07-30T21:04:07.392Z,67.40
2018-07-30T21:06:42.247Z,67.60
2018-07-30T21:09:16.620Z,68.10
2018-07-30T21:11:51.482Z,68.20
2018-07-30T21:14:26.259Z,68.30
2018-07-30T21:17:00.978Z,68.80
2018-07-30T21:19:35.718Z,68.90
2018-07-30T21:22:10.461Z,69.00
2018-07-30T21:24:45.107Z,69.20
2018-07-30T21:27:20.091Z,69.40
2018-07-30T21:29:54.958Z,70.20
2018-07-30T21:32:29.911Z,70.20
2018-07-30T21:35:04.668Z,70.70
2018-07-30T21:37:39.789Z,70.80
2018-07-30T21:40:14.422Z,70.90
2018-07-30T21:42:48.873Z,71.10
2018-07-30T21:45:23.512Z,70.90
2018-07-30T21:50:32.357Z,70.90
2018-07-30T21:53:07.766Z,70.90
2018-07-30T21:55:41.878Z,71.00
2018-07-30T21:58:16.482Z,71.30
2018-07-30T22:00:55.465Z,71.30
2018-07-30T22:03:30.334Z,71.50
2018-07-30T22:06:04.930Z,72.00
2018-07-30T22:08:39.504Z,72.10
2018-07-30T22:11:14.228Z,72.20
2018-07-30T22:13:48.981Z,72.40
2018-07-30T22:16:23.528Z,72.30
2018-07-30T22:21:32.846Z,72.60
2018-07-30T22:24:07.486Z,72.90
2018-07-30T22:26:42.357Z,72.90
2018-07-30T22:29:17.259Z,73.10
2018-07-30T22:31:52.187Z,73.30
2018-07-30T22:34:26.560Z,73.60
2018-07-30T22:37:01.379Z,73.60
2018-07-30T22:39:36.517Z,73.90
2018-07-30T22:42:10.761Z,74.10
2018-07-30T22:44:45.030Z,74.30
2018-07-30T22:47:19.675Z,74.20
2018-07-30T22:49:54.018Z,74.20
2018-07-30T22:52:28.801Z,74.20
2018-07-30T22:55:03.926Z,74.20
2018-07-30T22:57:38.476Z,74.60
2018-07-30T23:00:13.276Z,74.90
2018-07-30T23:02:47.752Z,74.00
2018-07-30T23:05:22.549Z,74.50
2018-07-30T23:07:57.636Z,74.80
2018-07-30T23:10:32.041Z,74.90
2018-07-30T23:13:07.006Z,73.90
2018-07-30T23:15:41.356Z,74.20
2018-07-30T23:18:16.025Z,74.20
2018-07-30T23:20:50.684Z,74.20
2018-07-30T23:23:25.376Z,73.50
2018-07-30T23:25:59.997Z,73.50
2018-07-30T23:28:34.750Z,73.60
2018-07-30T23:31:09.677Z,73.00
2018-07-30T23:33:44.296Z,72.80
2018-07-30T23:36:19.092Z,72.70
2018-07-30T23:38:53.865Z,72.00
2018-07-30T23:41:28.848Z,72.60
2018-07-30T23:44:03.580Z,72.50
2018-07-30T23:46:38.107Z,72.20
2018-07-30T23:49:13.012Z,72.10
2018-07-30T23:51:47.745Z,72.20
2018-07-30T23:54:22.384Z,72.30
2018-07-30T23:56:56.689Z,72.50
2018-07-30T23:59:30.824Z,72.60
